Terminal Aerodrome Forecast
Issued by NWS

Home | Current Version | Previous Version | Text Only | Print | Product List | Glossary Off
Versions: 1 2 3 4 5 6 7 8 9 10 11 12 13 14 15 16 17 18

124
FTUS43 KBIS 121130
TAFMOT
TAF
KMOT 121130Z 1212/1312 33008KT P6SM SCT020 SCT040
     FM121600 35009KT P6SM SCT150
     FM122100 01005KT P6SM FEW250
     FM130000 07005KT P6SM SCT250
     FM131000 13007KT P6SM BKN025 OVC040=

USA.gov is the U.S. government's official web portal to all federal, state and local government web resources and services.